HAZ2814 ZSPD-ZBAA
Flight info
| Callsign | HAZ2814 |
|---|---|
| Flight time | 1h 43m |
| Altitude | 36100 |
| Route | POMOK G330 PIMOL A593 DALIM W157 BEKDO/K0850S1130 W157 AVBOX AVBOX7X |
| Aircraft | A321/M-SDE3FGHIRWY/LB1 |
Departure
| Time | 2026-05-07 13:56 |
|---|---|
| Airport | Shanghai Pudong International Airport (ZSPD) |
Arrival
| Time | 2026-05-07 15:40 |
|---|---|
| Airport | Beijing Capital International Airport (ZBAA) |
| Time | Latitude | Longitude | Altitude | Speed | Heading |
|---|---|---|---|---|---|
| 2026-05-07 13:56 | 31.32122 | 121.55040 | 10496 ft | 316 kts | 260° |
| 2026-05-07 13:56 | 31.31695 | 121.52428 | 10619 ft | 337 kts | 260° |
| 2026-05-07 13:57 | 31.31242 | 121.49664 | 10739 ft | 355 kts | 260° |
| 2026-05-07 13:57 | 31.30768 | 121.46784 | 11128 ft | 364 kts | 260° |
| 2026-05-07 13:57 | 31.30284 | 121.43866 | 11686 ft | 368 kts | 260° |
| 2026-05-07 13:57 | 31.29793 | 121.40920 | 12281 ft | 370 kts | 260° |
| 2026-05-07 13:58 | 31.29397 | 121.37944 | 12869 ft | 372 kts | 267° |
| 2026-05-07 13:58 | 31.29532 | 121.34924 | 13445 ft | 374 kts | 279° |
| 2026-05-07 13:58 | 31.30258 | 121.32005 | 13994 ft | 377 kts | 292° |
| 2026-05-07 13:58 | 31.31512 | 121.29376 | 14469 ft | 381 kts | 304° |
| 2026-05-07 13:59 | 31.33239 | 121.27006 | 14950 ft | 384 kts | 309° |
| 2026-05-07 13:59 | 31.35036 | 121.24680 | 15427 ft | 386 kts | 309° |
| 2026-05-07 13:59 | 31.36839 | 121.22335 | 15892 ft | 389 kts | 309° |
| 2026-05-07 13:59 | 31.38649 | 121.19976 | 16341 ft | 391 kts | 309° |
| 2026-05-07 14:00 | 31.40468 | 121.17603 | 16831 ft | 393 kts | 308° |
| 2026-05-07 14:00 | 31.42299 | 121.15215 | 17293 ft | 395 kts | 308° |
| 2026-05-07 14:00 | 31.44218 | 121.12896 | 17740 ft | 400 kts | 315° |
| 2026-05-07 14:00 | 31.46497 | 121.10969 | 18179 ft | 408 kts | 325° |
| 2026-05-07 14:01 | 31.49074 | 121.09499 | 18571 ft | 414 kts | 330° |
| 2026-05-07 14:01 | 31.51707 | 121.08107 | 18950 ft | 416 kts | 330° |
| 2026-05-07 14:01 | 31.54348 | 121.06708 | 19335 ft | 418 kts | 330° |
| 2026-05-07 14:01 | 31.57002 | 121.05299 | 19719 ft | 419 kts | 330° |
| 2026-05-07 14:02 | 31.59629 | 121.03906 | 20104 ft | 421 kts | 330° |
| 2026-05-07 14:02 | 31.62339 | 121.02464 | 20487 ft | 423 kts | 330° |
| 2026-05-07 14:02 | 31.64985 | 121.01054 | 20852 ft | 424 kts | 329° |
| 2026-05-07 14:02 | 31.67681 | 120.99620 | 21221 ft | 426 kts | 329° |
| 2026-05-07 14:03 | 31.70385 | 120.98182 | 21605 ft | 428 kts | 329° |
| 2026-05-07 14:03 | 31.73099 | 120.96733 | 21957 ft | 429 kts | 329° |
| 2026-05-07 14:03 | 31.75861 | 120.95256 | 22318 ft | 431 kts | 329° |
| 2026-05-07 14:03 | 31.78561 | 120.93814 | 22676 ft | 433 kts | 329° |
| 2026-05-07 14:04 | 31.81307 | 120.92346 | 23028 ft | 434 kts | 329° |
| 2026-05-07 14:04 | 31.84062 | 120.90870 | 23371 ft | 436 kts | 329° |
| 2026-05-07 14:04 | 31.86826 | 120.89387 | 23700 ft | 438 kts | 329° |
| 2026-05-07 14:04 | 31.89599 | 120.87900 | 23967 ft | 439 kts | 329° |
| 2026-05-07 14:05 | 31.92388 | 120.86407 | 24233 ft | 441 kts | 329° |
| 2026-05-07 14:05 | 31.95181 | 120.84911 | 24492 ft | 442 kts | 329° |
| 2026-05-07 14:05 | 31.97987 | 120.83405 | 24723 ft | 445 kts | 329° |
| 2026-05-07 14:05 | 32.00820 | 120.81884 | 24935 ft | 448 kts | 329° |
| 2026-05-07 14:06 | 32.03658 | 120.80356 | 25199 ft | 450 kts | 329° |
| 2026-05-07 14:06 | 32.06510 | 120.78820 | 25467 ft | 451 kts | 329° |
| 2026-05-07 14:06 | 32.09363 | 120.77259 | 25743 ft | 451 kts | 326° |
| 2026-05-07 14:06 | 32.11968 | 120.75275 | 25998 ft | 443 kts | 315° |
| 2026-05-07 14:07 | 32.14136 | 120.72747 | 26251 ft | 436 kts | 304° |
| 2026-05-07 14:07 | 32.15807 | 120.69799 | 26526 ft | 430 kts | 294° |
| 2026-05-07 14:07 | 32.16943 | 120.66559 | 26879 ft | 425 kts | 284° |
| 2026-05-07 14:07 | 32.17526 | 120.63164 | 27224 ft | 422 kts | 275° |
| 2026-05-07 14:08 | 32.17819 | 120.59724 | 27578 ft | 420 kts | 275° |
| 2026-05-07 14:08 | 32.18106 | 120.56292 | 27936 ft | 419 kts | 275° |
| 2026-05-07 14:08 | 32.18391 | 120.52876 | 28291 ft | 418 kts | 275° |
| 2026-05-07 14:08 | 32.18678 | 120.49463 | 28651 ft | 417 kts | 275° |
| 2026-05-07 14:09 | 32.18961 | 120.46061 | 28992 ft | 416 kts | 275° |
| 2026-05-07 14:09 | 32.19236 | 120.42669 | 29340 ft | 415 kts | 275° |
| 2026-05-07 14:09 | 32.19509 | 120.39282 | 29693 ft | 414 kts | 275° |
| 2026-05-07 14:09 | 32.19780 | 120.35907 | 30056 ft | 412 kts | 275° |
| 2026-05-07 14:10 | 32.20051 | 120.32543 | 30374 ft | 411 kts | 275° |
| 2026-05-07 14:10 | 32.20324 | 120.29190 | 30676 ft | 409 kts | 275° |
| 2026-05-07 14:10 | 32.20597 | 120.25852 | 30984 ft | 408 kts | 275° |
| 2026-05-07 14:10 | 32.20870 | 120.22524 | 31294 ft | 407 kts | 275° |
| 2026-05-07 14:11 | 32.21143 | 120.19206 | 31604 ft | 405 kts | 275° |
| 2026-05-07 14:11 | 32.21416 | 120.15903 | 31914 ft | 404 kts | 275° |
| 2026-05-07 14:11 | 32.21689 | 120.12604 | 32225 ft | 403 kts | 275° |
| 2026-05-07 14:11 | 32.21958 | 120.09322 | 32548 ft | 401 kts | 275° |
| 2026-05-07 14:12 | 32.22224 | 120.06051 | 32881 ft | 399 kts | 275° |
| 2026-05-07 14:12 | 32.22488 | 120.02799 | 33202 ft | 397 kts | 275° |
| 2026-05-07 14:12 | 32.22748 | 119.99553 | 33517 ft | 396 kts | 275° |
| 2026-05-07 14:12 | 32.23004 | 119.96320 | 33827 ft | 395 kts | 275° |
| 2026-05-07 14:13 | 32.23257 | 119.93098 | 34131 ft | 393 kts | 275° |
| 2026-05-07 14:13 | 32.23509 | 119.89887 | 34404 ft | 392 kts | 275° |
| 2026-05-07 14:13 | 32.23759 | 119.86689 | 34670 ft | 390 kts | 275° |
| 2026-05-07 14:13 | 32.24010 | 119.83503 | 34930 ft | 389 kts | 275° |
| 2026-05-07 14:14 | 32.24441 | 119.80360 | 35217 ft | 388 kts | 284° |
| 2026-05-07 14:14 | 32.25424 | 119.77394 | 35481 ft | 390 kts | 295° |
| 2026-05-07 14:14 | 32.26937 | 119.74724 | 35728 ft | 395 kts | 305° |
| 2026-05-07 14:14 | 32.28938 | 119.72458 | 35936 ft | 403 kts | 316° |
| 2026-05-07 14:15 | 32.31214 | 119.70504 | 36150 ft | 405 kts | 317° |
| 2026-05-07 14:15 | 32.35787 | 119.66617 | 36246 ft | 404 kts | 316° |
| 2026-05-07 14:16 | 32.40348 | 119.62732 | 36248 ft | 404 kts | 316° |
| 2026-05-07 14:16 | 32.44895 | 119.58836 | 36249 ft | 403 kts | 316° |
| 2026-05-07 14:17 | 32.49439 | 119.54934 | 36249 ft | 403 kts | 316° |
| 2026-05-07 14:17 | 32.53971 | 119.51021 | 36255 ft | 403 kts | 316° |
| 2026-05-07 14:18 | 32.58502 | 119.47116 | 36290 ft | 402 kts | 316° |
| 2026-05-07 14:18 | 32.63024 | 119.43209 | 36281 ft | 402 kts | 316° |
| 2026-05-07 14:19 | 32.67532 | 119.39294 | 36274 ft | 401 kts | 316° |
| 2026-05-07 14:19 | 32.72039 | 119.35380 | 36273 ft | 401 kts | 316° |
| 2026-05-07 14:20 | 32.76542 | 119.31466 | 36269 ft | 401 kts | 316° |
| 2026-05-07 14:20 | 32.81046 | 119.27547 | 36269 ft | 401 kts | 316° |
| 2026-05-07 14:21 | 32.85517 | 119.23646 | 36282 ft | 401 kts | 316° |
| 2026-05-07 14:21 | 32.90008 | 119.19728 | 36278 ft | 400 kts | 316° |
| 2026-05-07 14:22 | 32.94486 | 119.15813 | 36284 ft | 399 kts | 316° |
| 2026-05-07 14:22 | 32.98981 | 119.11928 | 36282 ft | 399 kts | 316° |
| 2026-05-07 14:23 | 33.03483 | 119.08062 | 36282 ft | 399 kts | 316° |
| 2026-05-07 14:23 | 33.07985 | 119.04189 | 36282 ft | 399 kts | 316° |
| 2026-05-07 14:24 | 33.12479 | 119.00314 | 36284 ft | 398 kts | 316° |
| 2026-05-07 14:24 | 33.16962 | 118.96437 | 36284 ft | 397 kts | 316° |
| 2026-05-07 14:25 | 33.21417 | 118.92572 | 36282 ft | 395 kts | 316° |
| 2026-05-07 14:25 | 33.25853 | 118.88698 | 36281 ft | 395 kts | 316° |
| 2026-05-07 14:26 | 33.30288 | 118.84816 | 36283 ft | 395 kts | 316° |
| 2026-05-07 14:26 | 33.34738 | 118.80954 | 36283 ft | 395 kts | 316° |
| 2026-05-07 14:27 | 33.39195 | 118.77102 | 36286 ft | 395 kts | 316° |
| 2026-05-07 14:27 | 33.43650 | 118.73243 | 36286 ft | 395 kts | 316° |
| 2026-05-07 14:28 | 33.48095 | 118.69379 | 36310 ft | 395 kts | 316° |
| 2026-05-07 14:28 | 33.52521 | 118.65545 | 36309 ft | 395 kts | 316° |
| 2026-05-07 14:29 | 33.56979 | 118.61683 | 36302 ft | 395 kts | 316° |
| 2026-05-07 14:29 | 33.61432 | 118.57811 | 36295 ft | 396 kts | 316° |
| 2026-05-07 14:30 | 33.65893 | 118.53934 | 36293 ft | 396 kts | 316° |
| 2026-05-07 14:30 | 33.70357 | 118.50052 | 36292 ft | 396 kts | 316° |
| 2026-05-07 14:31 | 33.74810 | 118.46163 | 36292 ft | 396 kts | 316° |
| 2026-05-07 14:31 | 33.79259 | 118.42269 | 36311 ft | 396 kts | 316° |
| 2026-05-07 14:32 | 33.83706 | 118.38382 | 36303 ft | 395 kts | 316° |
| 2026-05-07 14:32 | 33.88147 | 118.34493 | 36302 ft | 395 kts | 316° |
| 2026-05-07 14:33 | 33.92584 | 118.30597 | 36301 ft | 395 kts | 316° |
| 2026-05-07 14:33 | 33.97030 | 118.26702 | 36293 ft | 395 kts | 316° |
| 2026-05-07 14:34 | 34.01482 | 118.22820 | 36291 ft | 395 kts | 316° |
| 2026-05-07 14:34 | 34.05946 | 118.18944 | 36314 ft | 395 kts | 316° |
| 2026-05-07 14:35 | 34.10408 | 118.15059 | 36304 ft | 395 kts | 316° |
| 2026-05-07 14:35 | 34.14869 | 118.11169 | 36301 ft | 395 kts | 316° |
| 2026-05-07 14:36 | 34.19328 | 118.07278 | 36298 ft | 396 kts | 316° |
| 2026-05-07 14:36 | 34.23785 | 118.03382 | 36305 ft | 395 kts | 316° |
| 2026-05-07 14:37 | 34.27580 | 118.00271 | 36298 ft | 403 kts | 323° |
| 2026-05-07 14:37 | 34.32993 | 117.97985 | 36293 ft | 417 kts | 333° |
| 2026-05-07 14:37 | 34.35782 | 117.97006 | 36309 ft | 417 kts | 333° |
| 2026-05-07 14:38 | 34.41348 | 117.95032 | 36299 ft | 417 kts | 333° |
| 2026-05-07 14:38 | 34.46912 | 117.93046 | 36296 ft | 417 kts | 333° |
| 2026-05-07 14:39 | 34.52477 | 117.91053 | 36298 ft | 417 kts | 333° |
| 2026-05-07 14:39 | 34.58041 | 117.89052 | 36300 ft | 417 kts | 333° |
| 2026-05-07 14:40 | 34.63610 | 117.87051 | 36325 ft | 417 kts | 333° |
| 2026-05-07 14:40 | 34.69182 | 117.85052 | 36317 ft | 417 kts | 333° |
| 2026-05-07 14:41 | 34.74749 | 117.83049 | 36314 ft | 417 kts | 333° |
| 2026-05-07 14:41 | 34.80317 | 117.81041 | 36309 ft | 417 kts | 333° |
| 2026-05-07 14:42 | 34.85876 | 117.79026 | 36308 ft | 416 kts | 333° |
| 2026-05-07 14:42 | 34.91402 | 117.77001 | 36293 ft | 414 kts | 332° |
| 2026-05-07 14:43 | 34.96923 | 117.74969 | 36289 ft | 415 kts | 332° |
| 2026-05-07 14:43 | 35.02457 | 117.72942 | 36292 ft | 416 kts | 333° |
| 2026-05-07 14:44 | 35.08002 | 117.70915 | 36297 ft | 416 kts | 333° |
| 2026-05-07 14:44 | 35.13506 | 117.68892 | 36318 ft | 416 kts | 333° |
| 2026-05-07 14:45 | 35.19053 | 117.66861 | 36315 ft | 416 kts | 333° |
| 2026-05-07 14:45 | 35.24597 | 117.64822 | 36313 ft | 416 kts | 332° |
| 2026-05-07 14:46 | 35.30143 | 117.62778 | 36314 ft | 416 kts | 333° |
| 2026-05-07 14:46 | 35.35691 | 117.60735 | 36319 ft | 416 kts | 332° |
| 2026-05-07 14:47 | 35.41218 | 117.58706 | 36307 ft | 414 kts | 332° |
| 2026-05-07 14:47 | 35.46736 | 117.56666 | 36307 ft | 414 kts | 332° |
| 2026-05-07 14:48 | 35.52258 | 117.54619 | 36303 ft | 414 kts | 332° |
| 2026-05-07 14:48 | 35.57777 | 117.52566 | 36305 ft | 414 kts | 332° |
| 2026-05-07 14:49 | 35.63297 | 117.50517 | 36305 ft | 415 kts | 332° |
| 2026-05-07 14:49 | 35.68819 | 117.48466 | 36306 ft | 415 kts | 332° |
| 2026-05-07 14:50 | 35.74338 | 117.46410 | 36308 ft | 414 kts | 332° |
| 2026-05-07 14:50 | 35.79852 | 117.44354 | 36311 ft | 414 kts | 332° |
| 2026-05-07 14:51 | 35.85352 | 117.42303 | 36305 ft | 411 kts | 332° |
| 2026-05-07 14:51 | 35.90806 | 117.40269 | 36297 ft | 409 kts | 332° |
| 2026-05-07 14:52 | 35.96257 | 117.38226 | 36297 ft | 409 kts | 332° |
| 2026-05-07 14:52 | 36.01701 | 117.36171 | 36297 ft | 410 kts | 332° |
| 2026-05-07 14:53 | 36.07167 | 117.34145 | 36342 ft | 410 kts | 332° |
| 2026-05-07 14:53 | 36.12627 | 117.32144 | 36333 ft | 409 kts | 332° |
| 2026-05-07 14:54 | 36.18071 | 117.30127 | 36322 ft | 408 kts | 332° |
| 2026-05-07 14:54 | 36.23520 | 117.28104 | 36319 ft | 408 kts | 332° |
| 2026-05-07 14:55 | 36.28963 | 117.26087 | 36321 ft | 409 kts | 332° |
| 2026-05-07 14:55 | 36.34405 | 117.24074 | 36314 ft | 407 kts | 332° |
| 2026-05-07 14:56 | 36.39817 | 117.22057 | 36315 ft | 407 kts | 332° |
| 2026-05-07 14:56 | 36.45034 | 117.19648 | 36304 ft | 397 kts | 326° |
| 2026-05-07 14:57 | 36.50134 | 117.16993 | 36305 ft | 397 kts | 326° |
| 2026-05-07 14:57 | 36.55229 | 117.14337 | 36297 ft | 397 kts | 326° |
| 2026-05-07 14:58 | 36.60326 | 117.11681 | 36334 ft | 397 kts | 326° |
| 2026-05-07 14:58 | 36.65410 | 117.09015 | 36323 ft | 396 kts | 326° |
| 2026-05-07 14:59 | 36.70492 | 117.06363 | 36318 ft | 396 kts | 326° |
| 2026-05-07 14:59 | 36.75576 | 117.03719 | 36312 ft | 396 kts | 326° |
| 2026-05-07 15:00 | 36.80653 | 117.01059 | 36313 ft | 395 kts | 326° |
| 2026-05-07 15:00 | 36.85691 | 116.98417 | 36300 ft | 390 kts | 326° |
| 2026-05-07 15:01 | 36.90694 | 116.95790 | 36295 ft | 390 kts | 326° |
| 2026-05-07 15:01 | 36.95698 | 116.93155 | 36293 ft | 390 kts | 325° |
| 2026-05-07 15:02 | 37.00703 | 116.90509 | 36290 ft | 391 kts | 326° |
| 2026-05-07 15:02 | 37.05714 | 116.87867 | 36291 ft | 391 kts | 326° |
| 2026-05-07 15:03 | 37.10710 | 116.85230 | 36313 ft | 388 kts | 326° |
| 2026-05-07 15:03 | 37.15678 | 116.82597 | 36311 ft | 388 kts | 326° |
| 2026-05-07 15:04 | 37.20650 | 116.79967 | 36311 ft | 388 kts | 326° |
| 2026-05-07 15:04 | 37.25864 | 116.77838 | 36306 ft | 396 kts | 331° |
| 2026-05-07 15:05 | 37.31146 | 116.75852 | 36363 ft | 396 kts | 331° |
| 2026-05-07 15:05 | 37.36370 | 116.73887 | 36287 ft | 390 kts | 330° |
| 2026-05-07 15:06 | 37.41569 | 116.71915 | 35879 ft | 392 kts | 330° |
| 2026-05-07 15:06 | 37.44171 | 116.70926 | 35396 ft | 390 kts | 330° |
| 2026-05-07 15:06 | 37.46761 | 116.69943 | 34923 ft | 388 kts | 330° |
| 2026-05-07 15:07 | 37.49347 | 116.68962 | 34457 ft | 388 kts | 329° |
| 2026-05-07 15:07 | 37.51928 | 116.67984 | 33965 ft | 387 kts | 329° |
| 2026-05-07 15:07 | 37.54471 | 116.67015 | 33536 ft | 387 kts | 330° |
| 2026-05-07 15:07 | 37.57043 | 116.66037 | 33001 ft | 386 kts | 330° |
| 2026-05-07 15:08 | 37.59615 | 116.65058 | 32487 ft | 387 kts | 331° |
| 2026-05-07 15:08 | 37.62205 | 116.64067 | 31981 ft | 390 kts | 332° |
| 2026-05-07 15:08 | 37.64807 | 116.63068 | 31493 ft | 393 kts | 332° |
| 2026-05-07 15:08 | 37.67430 | 116.62061 | 31009 ft | 396 kts | 333° |
| 2026-05-07 15:09 | 37.70075 | 116.61044 | 30534 ft | 398 kts | 333° |
| 2026-05-07 15:09 | 37.72737 | 116.60022 | 30029 ft | 401 kts | 334° |
| 2026-05-07 15:09 | 37.75416 | 116.58999 | 29467 ft | 403 kts | 334° |
| 2026-05-07 15:09 | 37.78107 | 116.57975 | 28936 ft | 404 kts | 335° |
| 2026-05-07 15:10 | 37.80801 | 116.56950 | 28406 ft | 405 kts | 336° |
| 2026-05-07 15:10 | 37.83500 | 116.55919 | 27863 ft | 405 kts | 337° |
| 2026-05-07 15:10 | 37.86205 | 116.54881 | 27338 ft | 406 kts | 338° |
| 2026-05-07 15:10 | 37.88914 | 116.53841 | 26824 ft | 407 kts | 338° |
| 2026-05-07 15:11 | 37.91628 | 116.52799 | 26319 ft | 408 kts | 338° |
| 2026-05-07 15:11 | 37.94346 | 116.51757 | 25824 ft | 408 kts | 339° |
| 2026-05-07 15:11 | 37.97014 | 116.50561 | 25340 ft | 405 kts | 332° |
| 2026-05-07 15:11 | 37.99431 | 116.48749 | 24852 ft | 404 kts | 323° |
| 2026-05-07 15:12 | 38.01708 | 116.46651 | 24387 ft | 405 kts | 323° |
| 2026-05-07 15:12 | 38.03993 | 116.44551 | 23925 ft | 407 kts | 324° |
| 2026-05-07 15:12 | 38.06283 | 116.42456 | 23410 ft | 405 kts | 324° |
| 2026-05-07 15:12 | 38.08567 | 116.40369 | 22862 ft | 404 kts | 324° |
| 2026-05-07 15:13 | 38.10841 | 116.38288 | 22326 ft | 403 kts | 324° |
| 2026-05-07 15:13 | 38.13110 | 116.36211 | 21802 ft | 402 kts | 324° |
| 2026-05-07 15:13 | 38.15374 | 116.34133 | 21284 ft | 401 kts | 324° |
| 2026-05-07 15:13 | 38.17630 | 116.32057 | 20775 ft | 401 kts | 324° |
| 2026-05-07 15:14 | 38.19886 | 116.29977 | 20261 ft | 400 kts | 324° |
| 2026-05-07 15:14 | 38.22205 | 116.28034 | 19773 ft | 399 kts | 332° |
| 2026-05-07 15:14 | 38.24771 | 116.26686 | 19290 ft | 400 kts | 342° |
| 2026-05-07 15:14 | 38.27511 | 116.26045 | 18939 ft | 403 kts | 353° |
| 2026-05-07 15:15 | 38.30323 | 116.26127 | 18844 ft | 407 kts | 4° |
| 2026-05-07 15:15 | 38.33110 | 116.26892 | 18872 ft | 412 kts | 11° |
| 2026-05-07 15:15 | 38.35883 | 116.27837 | 18871 ft | 413 kts | 11° |
| 2026-05-07 15:15 | 38.38655 | 116.28787 | 18871 ft | 413 kts | 11° |
| 2026-05-07 15:16 | 38.41429 | 116.29743 | 18871 ft | 413 kts | 11° |
| 2026-05-07 15:16 | 38.44197 | 116.30697 | 18869 ft | 413 kts | 11° |
| 2026-05-07 15:16 | 38.46972 | 116.31652 | 18868 ft | 413 kts | 11° |
| 2026-05-07 15:16 | 38.49741 | 116.32610 | 18870 ft | 412 kts | 11° |
| 2026-05-07 15:17 | 38.52508 | 116.33567 | 18868 ft | 412 kts | 11° |
| 2026-05-07 15:17 | 38.55277 | 116.34521 | 18868 ft | 412 kts | 11° |
| 2026-05-07 15:17 | 38.58043 | 116.35473 | 18868 ft | 412 kts | 11° |
| 2026-05-07 15:17 | 38.59874 | 116.36103 | 18866 ft | 412 kts | 11° |
| 2026-05-07 15:18 | 38.63576 | 116.37384 | 18844 ft | 411 kts | 11° |
| 2026-05-07 15:18 | 38.66319 | 116.38313 | 18263 ft | 405 kts | 11° |
| 2026-05-07 15:18 | 38.69046 | 116.39142 | 17475 ft | 401 kts | 9° |
| 2026-05-07 15:18 | 38.71763 | 116.39902 | 16720 ft | 397 kts | 9° |
| 2026-05-07 15:19 | 38.74459 | 116.40623 | 15980 ft | 394 kts | 9° |
| 2026-05-07 15:19 | 38.77130 | 116.41332 | 15252 ft | 391 kts | 9° |
| 2026-05-07 15:19 | 38.79781 | 116.42048 | 14560 ft | 388 kts | 9° |
| 2026-05-07 15:19 | 38.82408 | 116.42775 | 13865 ft | 385 kts | 10° |
| 2026-05-07 15:20 | 38.85015 | 116.43508 | 13108 ft | 382 kts | 10° |
| 2026-05-07 15:20 | 38.87595 | 116.44244 | 12432 ft | 377 kts | 10° |
| 2026-05-07 15:20 | 38.90097 | 116.44960 | 12278 ft | 360 kts | 10° |
| 2026-05-07 15:20 | 38.91692 | 116.45418 | 12188 ft | 349 kts | 10° |
| 2026-05-07 15:21 | 38.94015 | 116.46084 | 12043 ft | 335 kts | 10° |
| 2026-05-07 15:21 | 38.96237 | 116.46720 | 11937 ft | 320 kts | 10° |
| 2026-05-07 15:21 | 38.98348 | 116.47323 | 11953 ft | 302 kts | 10° |
| 2026-05-07 15:21 | 39.00343 | 116.47892 | 11957 ft | 286 kts | 9° |
| 2026-05-07 15:22 | 39.02241 | 116.48429 | 11950 ft | 276 kts | 9° |
| 2026-05-07 15:22 | 39.04110 | 116.48956 | 11953 ft | 274 kts | 9° |
| 2026-05-07 15:22 | 39.05972 | 116.49480 | 11960 ft | 274 kts | 9° |
| 2026-05-07 15:22 | 39.07836 | 116.50008 | 11957 ft | 274 kts | 9° |
| 2026-05-07 15:23 | 39.09705 | 116.50506 | 11955 ft | 274 kts | 6° |
| 2026-05-07 15:23 | 39.11593 | 116.50732 | 11898 ft | 271 kts | 359° |
| 2026-05-07 15:23 | 39.13465 | 116.50659 | 11511 ft | 268 kts | 353° |
| 2026-05-07 15:23 | 39.15315 | 116.50364 | 11114 ft | 267 kts | 351° |
| 2026-05-07 15:24 | 39.17157 | 116.50070 | 10731 ft | 266 kts | 352° |
| 2026-05-07 15:24 | 39.18996 | 116.49784 | 10364 ft | 265 kts | 352° |
| 2026-05-07 15:24 | 39.20825 | 116.49497 | 9978 ft | 264 kts | 352° |
| 2026-05-07 15:24 | 39.22649 | 116.49214 | 9573 ft | 264 kts | 352° |
| 2026-05-07 15:25 | 39.24468 | 116.48937 | 9162 ft | 263 kts | 352° |
| 2026-05-07 15:25 | 39.26279 | 116.48656 | 8755 ft | 262 kts | 352° |
| 2026-05-07 15:25 | 39.28089 | 116.48373 | 8336 ft | 262 kts | 352° |
| 2026-05-07 15:25 | 39.29898 | 116.48092 | 7933 ft | 261 kts | 352° |
| 2026-05-07 15:26 | 39.31699 | 116.47812 | 7530 ft | 261 kts | 352° |
| 2026-05-07 15:26 | 39.33498 | 116.47530 | 7152 ft | 260 kts | 352° |
| 2026-05-07 15:26 | 39.35291 | 116.47249 | 6760 ft | 259 kts | 352° |
| 2026-05-07 15:26 | 39.37083 | 116.46974 | 6352 ft | 259 kts | 352° |
| 2026-05-07 15:27 | 39.38871 | 116.46698 | 5962 ft | 258 kts | 352° |
| 2026-05-07 15:27 | 39.40647 | 116.46421 | 5905 ft | 258 kts | 352° |
| 2026-05-07 15:27 | 39.42436 | 116.46143 | 5910 ft | 259 kts | 353° |
| 2026-05-07 15:27 | 39.44228 | 116.45868 | 5910 ft | 259 kts | 352° |
| 2026-05-07 15:28 | 39.46019 | 116.45623 | 5910 ft | 259 kts | 358° |
| 2026-05-07 15:28 | 39.47807 | 116.45889 | 5909 ft | 261 kts | 14° |
| 2026-05-07 15:28 | 39.49482 | 116.46826 | 5912 ft | 265 kts | 30° |
| 2026-05-07 15:28 | 39.50979 | 116.48229 | 5911 ft | 266 kts | 34° |
| 2026-05-07 15:29 | 39.52466 | 116.49655 | 5910 ft | 266 kts | 34° |
| 2026-05-07 15:29 | 39.53958 | 116.51080 | 5910 ft | 266 kts | 34° |
| 2026-05-07 15:29 | 39.55450 | 116.52503 | 5910 ft | 266 kts | 34° |
| 2026-05-07 15:29 | 39.56943 | 116.53923 | 5910 ft | 266 kts | 34° |
| 2026-05-07 15:30 | 39.58435 | 116.55344 | 5909 ft | 266 kts | 34° |
| 2026-05-07 15:30 | 39.59926 | 116.56767 | 5915 ft | 266 kts | 33° |
| 2026-05-07 15:30 | 39.61419 | 116.58195 | 5912 ft | 267 kts | 33° |
| 2026-05-07 15:30 | 39.62912 | 116.59623 | 5911 ft | 267 kts | 33° |
| 2026-05-07 15:31 | 39.64406 | 116.61053 | 5827 ft | 268 kts | 34° |
| 2026-05-07 15:31 | 39.65929 | 116.62411 | 5568 ft | 263 kts | 25° |
| 2026-05-07 15:31 | 39.67632 | 116.63213 | 5315 ft | 259 kts | 9° |
| 2026-05-07 15:31 | 39.69407 | 116.63352 | 5067 ft | 253 kts | 353° |
| 2026-05-07 15:32 | 39.71131 | 116.63083 | 4816 ft | 246 kts | 352° |
| 2026-05-07 15:32 | 39.72814 | 116.62819 | 4569 ft | 241 kts | 352° |
| 2026-05-07 15:32 | 39.74460 | 116.62566 | 4306 ft | 236 kts | 352° |
| 2026-05-07 15:32 | 39.76077 | 116.62318 | 4054 ft | 233 kts | 352° |
| 2026-05-07 15:33 | 39.77681 | 116.62072 | 3802 ft | 231 kts | 353° |
| 2026-05-07 15:33 | 39.79277 | 116.61827 | 3553 ft | 230 kts | 353° |
| 2026-05-07 15:33 | 39.80852 | 116.61586 | 3305 ft | 226 kts | 353° |
| 2026-05-07 15:33 | 39.82401 | 116.61348 | 3087 ft | 221 kts | 353° |
| 2026-05-07 15:34 | 39.83896 | 116.61117 | 3004 ft | 210 kts | 352° |
| 2026-05-07 15:34 | 39.85315 | 116.60894 | 3026 ft | 203 kts | 353° |
| 2026-05-07 15:34 | 39.86718 | 116.60673 | 3015 ft | 203 kts | 353° |
| 2026-05-07 15:34 | 39.88095 | 116.60456 | 3005 ft | 191 kts | 353° |
| 2026-05-07 15:35 | 39.89368 | 116.60256 | 3029 ft | 181 kts | 353° |
| 2026-05-07 15:35 | 39.90591 | 116.60063 | 3013 ft | 178 kts | 352° |
| 2026-05-07 15:35 | 39.91814 | 116.59867 | 3021 ft | 177 kts | 352° |
| 2026-05-07 15:35 | 39.93035 | 116.59674 | 2883 ft | 176 kts | 352° |
| 2026-05-07 15:36 | 39.94246 | 116.59483 | 2681 ft | 171 kts | 353° |
| 2026-05-07 15:36 | 39.95380 | 116.59305 | 2471 ft | 160 kts | 352° |
| 2026-05-07 15:36 | 39.96472 | 116.59133 | 2262 ft | 157 kts | 352° |
| 2026-05-07 15:36 | 39.97549 | 116.58963 | 2059 ft | 155 kts | 352° |
| 2026-05-07 15:37 | 39.98614 | 116.58796 | 1850 ft | 150 kts | 352° |
| 2026-05-07 15:37 | 39.99617 | 116.58639 | 1656 ft | 143 kts | 352° |
| 2026-05-07 15:37 | 40.00600 | 116.58483 | 1461 ft | 142 kts | 352° |
| 2026-05-07 15:37 | 40.01578 | 116.58329 | 1280 ft | 142 kts | 352° |
| 2026-05-07 15:38 | 40.02557 | 116.58175 | 1094 ft | 142 kts | 352° |
| 2026-05-07 15:38 | 40.03539 | 116.58021 | 912 ft | 143 kts | 352° |
| 2026-05-07 15:38 | 40.04525 | 116.57864 | 701 ft | 143 kts | 352° |
| 2026-05-07 15:38 | 40.05512 | 116.57708 | 529 ft | 143 kts | 352° |
| 2026-05-07 15:39 | 40.06505 | 116.57552 | 324 ft | 143 kts | 352° |
| 2026-05-07 15:39 | 40.07491 | 116.57397 | 150 ft | 142 kts | 352° |
| 2026-05-07 15:39 | 40.08405 | 116.57256 | 125 ft | 110 kts | 353° |
| 2026-05-07 15:39 | 40.08973 | 116.57168 | 125 ft | 57 kts | 353° |
| 2026-05-07 15:40 | 40.09213 | 116.57130 | 122 ft | 23 kts | 353° |
| 2026-05-07 15:40 | 40.09366 | 116.57107 | 123 ft | 22 kts | 353° |
| 2026-05-07 15:40 | 40.09534 | 116.57123 | 122 ft | 26 kts | 13° |
| 2026-05-07 15:40 | 40.09669 | 116.57187 | 122 ft | 11 kts | 28° |
| 2026-05-07 15:41 | 40.09688 | 116.57260 | 122 ft | 8 kts | 122° |
| 2026-05-07 15:41 | 40.09625 | 116.57290 | 122 ft | 13 kts | 172° |
| 2026-05-07 15:41 | 40.09523 | 116.57306 | 123 ft | 15 kts | 173° |
| 2026-05-07 15:41 | 40.09407 | 116.57325 | 122 ft | 20 kts | 173° |
| 2026-05-07 15:42 | 40.09241 | 116.57351 | 122 ft | 26 kts | 173° |
| 2026-05-07 15:42 | 40.09067 | 116.57378 | 123 ft | 25 kts | 173° |
| 2026-05-07 15:42 | 40.08899 | 116.57404 | 123 ft | 23 kts | 173° |
| 2026-05-07 15:42 | 40.08834 | 116.57460 | 124 ft | 10 kts | 98° |
| 2026-05-07 15:43 | 40.08843 | 116.57584 | 122 ft | 19 kts | 83° |
| 2026-05-07 15:43 | 40.08863 | 116.57794 | 124 ft | 25 kts | 83° |
| 2026-05-07 15:43 | 40.08884 | 116.58021 | 125 ft | 25 kts | 83° |
| 2026-05-07 15:43 | 40.08904 | 116.58246 | 124 ft | 25 kts | 83° |
| 2026-05-07 15:44 | 40.08925 | 116.58469 | 123 ft | 25 kts | 83° |
| 2026-05-07 15:44 | 40.08945 | 116.58689 | 124 ft | 24 kts | 83° |
| 2026-05-07 15:44 | 40.08965 | 116.58906 | 124 ft | 24 kts | 83° |
| 2026-05-07 15:44 | 40.08981 | 116.59073 | 124 ft | 14 kts | 83° |
| 2026-05-07 15:45 | 40.08960 | 116.59184 | 123 ft | 13 kts | 155° |
| 2026-05-07 15:45 | 40.08864 | 116.59205 | 122 ft | 17 kts | 173° |
| 2026-05-07 15:45 | 40.08744 | 116.59224 | 122 ft | 17 kts | 172° |
| 2026-05-07 15:45 | 40.08623 | 116.59244 | 121 ft | 20 kts | 173° |
| 2026-05-07 15:46 | 40.08290 | 116.59295 | 121 ft | 24 kts | 173° |
| 2026-05-07 15:46 | 40.08121 | 116.59321 | 122 ft | 25 kts | 173° |
| 2026-05-07 15:46 | 40.07950 | 116.59348 | 123 ft | 25 kts | 173° |
| 2026-05-07 15:47 | 40.07781 | 116.59376 | 122 ft | 24 kts | 173° |
| 2026-05-07 15:47 | 40.07609 | 116.59401 | 123 ft | 27 kts | 173° |
| 2026-05-07 15:47 | 40.07420 | 116.59433 | 122 ft | 27 kts | 167° |
| 2026-05-07 15:47 | 40.07253 | 116.59514 | 122 ft | 26 kts | 173° |
| 2026-05-07 15:48 | 40.07077 | 116.59541 | 121 ft | 25 kts | 173° |
| 2026-05-07 15:48 | 40.06903 | 116.59568 | 120 ft | 25 kts | 173° |
| 2026-05-07 15:48 | 40.06718 | 116.59598 | 123 ft | 27 kts | 173° |
| 2026-05-07 15:48 | 40.06531 | 116.59627 | 120 ft | 27 kts | 173° |
| 2026-05-07 15:49 | 40.06347 | 116.59655 | 121 ft | 26 kts | 173° |
| 2026-05-07 15:49 | 40.06188 | 116.59681 | 123 ft | 19 kts | 173° |
| 2026-05-07 15:49 | 40.06134 | 116.59748 | 122 ft | 11 kts | 89° |
| 2026-05-07 15:49 | 40.06143 | 116.59840 | 122 ft | 10 kts | 82° |
| 2026-05-07 15:50 | 40.06151 | 116.59941 | 119 ft | 14 kts | 83° |
| 2026-05-07 15:50 | 40.06164 | 116.60086 | 120 ft | 16 kts | 83° |
| 2026-05-07 15:50 | 40.06178 | 116.60231 | 124 ft | 16 kts | 83° |
| 2026-05-07 15:50 | 40.06191 | 116.60372 | 124 ft | 15 kts | 83° |
| 2026-05-07 15:51 | 40.06201 | 116.60484 | 124 ft | 11 kts | 85° |
| 2026-05-07 15:51 | 40.06156 | 116.60534 | 121 ft | 9 kts | 169° |
| 2026-05-07 15:51 | 40.06090 | 116.60545 | 122 ft | 12 kts | 173° |
| 2026-05-07 15:51 | 40.06040 | 116.60569 | 121 ft | 6 kts | 131° |
| 2026-05-07 15:52 | 40.06040 | 116.60610 | 123 ft | 4 kts | 83° |
| 2026-05-07 15:52 | 40.06042 | 116.60640 | 120 ft | 3 kts | 83° |
| 2026-05-07 15:52 | 40.06044 | 116.60661 | 122 ft | 2 kts | 83° |
| 2026-05-07 15:52 | 40.06044 | 116.60664 | 122 ft | 0 kts | 83° |